Pacific Star — WDG7068 — position and weather

sailwx.info

Track history (hours):
 
Tides and Currents Weather Stations Pressure Air Temp Water Temp Dewpoint Dewpoint Depression Visibility Wind Speed Wind Dir Waves Ship Positions

Pacific Star

Owner: Foss Maritime Company, Seattle, WA. More information available from US FCC via Universal Licensing System and Coast Guard Vessel Documentation Center.

Last reported at 2018-Aug-21 04:03 UTC. Time now 2018-Aug-21 04:21 UTC.
Position N 33°46' W 118°13'.

Length 30 m; draft 5.4 m.

Type: Tug. MMSI: 367563590.

Date/timePositionNaut miles runAvg speedWind from/ knotsBaromVisibWave heightAir tempDewpointWater temp
2018-Aug-21 04:03N 33°46' W 118°13'0 0.0
2018-Aug-21 04:00N 33°46' W 118°13'0 0.0
2018-Aug-21 03:30N 33°46' W 118°13'0 0.0
2018-Aug-21 03:03N 33°46' W 118°13'0 0.0
2018-Aug-21 03:01N 33°46' W 118°13'1 1.8
2018-Aug-21 02:31N 33°45' W 118°13'0 0.0
2018-Aug-21 02:03N 33°45' W 118°13'0 0.0
2018-Aug-21 02:00N 33°45' W 118°13'0 0.8
2018-Aug-21 01:30N 33°45' W 118°13'2 3.5
2018-Aug-21 01:03N 33°44' W 118°12'0 6.1
2018-Aug-21 01:00N 33°44' W 118°11'3 5.1
2018-Aug-21 00:30N 33°41' W 118°11'4 8.0
2018-Aug-21 00:03N 33°44' W 118°13'0 7.5
2018-Aug-21 00:00N 33°45' W 118°13'0 0.7
2018-Aug-20 23:30N 33°45' W 118°13'1 3.2
2018-Aug-20 23:03N 33°46' W 118°13'0 1.0
2018-Aug-20 23:00N 33°46' W 118°13'0 0.6
2018-Aug-20 22:30N 33°46' W 118°13'0 0.0
2018-Aug-20 22:03N 33°46' W 118°13'0 0.0
2018-Aug-20 22:00N 33°46' W 118°13'0 0.0
2018-Aug-20 21:30N 33°46' W 118°13'0 0.0
2018-Aug-20 21:03N 33°46' W 118°13'0 0.0
2018-Aug-20 21:00N 33°46' W 118°13'0 0.0
2018-Aug-20 20:30N 33°46' W 118°13'0 0.0
2018-Aug-20 20:03N 33°46' W 118°13'0 0.0
2018-Aug-20 20:00N 33°46' W 118°13'0 0.0
2018-Aug-20 19:30N 33°46' W 118°13'0 0.0
2018-Aug-20 19:03N 33°46' W 118°13'0 0.1
2018-Aug-20 19:00N 33°46' W 118°13'3 6.3
2018-Aug-20 18:30N 33°43' W 118°14'3 5.7
2018-Aug-20 18:03N 33°45' W 118°16'0 6.8
2018-Aug-20 18:00N 33°45' W 118°16'1 1.3
2018-Aug-20 17:30N 33°46' W 118°16'0 0.0
2018-Aug-20 17:03N 33°46' W 118°16'0 0.1
2018-Aug-20 17:00N 33°46' W 118°16'0 0.1
2018-Aug-20 16:31N 33°46' W 118°16'0 0.9
2018-Aug-20 16:03N 33°45' W 118°16'0 0.8
2018-Aug-20 15:59N 33°45' W 118°16'1 2.9
2018-Aug-20 15:30N 33°44' W 118°17'2 4.8
2018-Aug-20 15:03N 33°43' W 118°15'0 0.1
2018-Aug-20 15:00N 33°43' W 118°15'0 0.3
2018-Aug-20 14:30N 33°43' W 118°15'3 6.2
2018-Aug-20 14:00N 33°45' W 118°17'0 0.2
2018-Aug-20 13:30N 33°45' W 118°17'2 3.6
2018-Aug-20 13:03N 33°44' W 118°16'0 5.6
2018-Aug-20 13:00N 33°43' W 118°16'2 3.2
2018-Aug-20 12:30N 33°43' W 118°15'1 3.3
2018-Aug-20 12:03N 33°44' W 118°13'0 6.6
2018-Aug-20 12:00N 33°44' W 118°13'2 4.1
2018-Aug-20 11:30N 33°46' W 118°13'0 0.0
2018-Aug-20 11:03N 33°46' W 118°13'0 0.0
2018-Aug-20 11:00N 33°46' W 118°13'0 0.0
2018-Aug-20 10:30N 33°46' W 118°13'0 0.0
2018-Aug-20 10:03N 33°46' W 118°13'0 0.0
2018-Aug-20 10:00N 33°46' W 118°13'0 0.0
2018-Aug-20 09:30N 33°46' W 118°13'0 0.0
2018-Aug-20 09:03N 33°46' W 118°13'0 0.0
2018-Aug-20 09:00N 33°46' W 118°13'0 0.0
2018-Aug-20 08:30N 33°46' W 118°13'0 0.0
2018-Aug-20 08:03N 33°46' W 118°13'0 0.0
2018-Aug-20 08:00N 33°46' W 118°13'0 0.0
2018-Aug-20 07:30N 33°46' W 118°13'0 0.0
2018-Aug-20 07:03N 33°46' W 118°13'0 0.0
2018-Aug-20 07:00N 33°46' W 118°13'0 0.0
2018-Aug-20 06:30N 33°46' W 118°13'0 0.0
2018-Aug-20 06:03N 33°46' W 118°13'0 0.0
2018-Aug-20 06:00N 33°46' W 118°13'0 0.6
2018-Aug-20 05:30N 33°46' W 118°13'0 0.3
2018-Aug-20 05:03N 33°46' W 118°13'0 2.1
2018-Aug-20 05:00N 33°46' W 118°13'0 2.2
2018-Aug-20 04:47N 33°46' W 118°13'1 3.3
2018-Aug-20 04:30N 33°45' W 118°13'2 4.8
2018-Aug-20 04:00N 33°44' W 118°11'1 2.8
2018-Aug-20 03:30N 33°44' W 118°12'0 0.7
2018-Aug-20 03:00N 33°44' W 118°12'0 0.0
2018-Aug-20 02:30N 33°44' W 118°12'4 7.4
2018-Aug-20 02:01N 33°44' W 118°17'2 4.0
2018-Aug-20 01:30N 33°46' W 118°16'0 0.5
2018-Aug-20 01:00N 33°46' W 118°16'2 4.2
2018-Aug-20 00:30N 33°44' W 118°16'3 5.8
2018-Aug-20 00:00N 33°44' W 118°13'1 1.9
2018-Aug-19 23:30N 33°45' W 118°13'0 0.5
2018-Aug-19 23:00N 33°45' W 118°13'2 3.2
2018-Aug-19 22:30N 33°46' W 118°13'0 0.0
2018-Aug-19 22:00N 33°46' W 118°13'0 0.0
2018-Aug-19 21:30N 33°46' W 118°13'0 0.0
2018-Aug-19 21:00N 33°46' W 118°13'0 0.0
2018-Aug-19 20:30N 33°46' W 118°13'0 0.0
2018-Aug-19 20:00N 33°46' W 118°13'0 0.0
2018-Aug-19 19:30N 33°46' W 118°13'0 0.0
2018-Aug-19 19:00N 33°46' W 118°13'0 0.0
2018-Aug-19 18:30N 33°46' W 118°13'0 0.0
2018-Aug-19 18:01N 33°46' W 118°13'0 0.0
2018-Aug-19 17:30N 33°46' W 118°13'0 0.0
2018-Aug-19 17:00N 33°46' W 118°13'0 0.0
2018-Aug-19 16:30N 33°46' W 118°13'0 0.0
2018-Aug-19 16:00N 33°46' W 118°13'0 0.0
2018-Aug-19 15:30N 33°46' W 118°13'0 0.0
2018-Aug-19 15:00N 33°46' W 118°13'0 0.0
2018-Aug-19 14:30N 33°46' W 118°13'1 1.0
2018-Aug-19 14:00N 33°46' W 118°13'2 3.5
2018-Aug-19 13:30N 33°44' W 118°12'0 0.6
2018-Aug-19 13:00N 33°45' W 118°12'0 0.3
2018-Aug-19 12:30N 33°44' W 118°12'0 0.1
2018-Aug-19 12:00N 33°44' W 118°12'1 2.9
2018-Aug-19 11:30N 33°43' W 118°11'1 1.1
2018-Aug-19 11:00N 33°44' W 118°11'3 5.5
2018-Aug-19 10:30N 33°46' W 118°13'0 0.0
2018-Aug-19 10:00N 33°46' W 118°13'0 0.0
2018-Aug-19 09:31N 33°46' W 118°13'0 0.0
2018-Aug-19 09:00N 33°46' W 118°13'0 0.0
2018-Aug-19 08:30N 33°46' W 118°13'0 0.0
2018-Aug-19 08:00N 33°46' W 118°13'0 0.0
2018-Aug-19 07:30N 33°46' W 118°13'0 0.0
2018-Aug-19 07:00N 33°46' W 118°13'0 0.0
2018-Aug-19 06:30N 33°46' W 118°13'0 0.0
2018-Aug-19 06:00N 33°46' W 118°13'0 0.0
2018-Aug-19 05:30N 33°46' W 118°13'0 0.0
2018-Aug-19 05:00N 33°46' W 118°13'0 0.0
2018-Aug-19 04:30N 33°46' W 118°13'0 0.0
2018-Aug-19 04:00N 33°46' W 118°13'0 0.0
2018-Aug-19 03:30N 33°46' W 118°13'2 3.3
2018-Aug-19 03:00N 33°45' W 118°13'1 2.2
2018-Aug-19 02:30N 33°45' W 118°14'0 0.1
2018-Aug-19 02:00N 33°45' W 118°14'0 0.1
2018-Aug-19 01:30N 33°45' W 118°14'0 0.0
2018-Aug-19 01:01N 33°45' W 118°14'0 0.1
2018-Aug-19 00:30N 33°45' W 118°14'1 1.8
2018-Aug-19 00:00N 33°46' W 118°14'1 1.8
2018-Aug-18 23:30N 33°45' W 118°13'2 4.8
2018-Aug-18 23:00N 33°43' W 118°11'1 2.0
2018-Aug-18 22:30N 33°44' W 118°12'2 4.3
2018-Aug-18 22:00N 33°46' W 118°13'0 0.0
2018-Aug-18 21:30N 33°46' W 118°13'0 0.0
2018-Aug-18 21:00N 33°46' W 118°13'0 0.0
2018-Aug-18 20:30N 33°46' W 118°13'0 0.0
2018-Aug-18 20:00N 33°46' W 118°13'0 0.0
2018-Aug-18 19:30N 33°46' W 118°13'0 0.0
2018-Aug-18 19:00N 33°46' W 118°13'0 0.0
2018-Aug-18 18:30N 33°46' W 118°13'0 0.0
2018-Aug-18 18:00N 33°46' W 118°13'0 0.0
2018-Aug-18 17:30N 33°46' W 118°13'0 0.0
2018-Aug-18 17:00N 33°46' W 118°13'0 0.0
2018-Aug-18 16:30N 33°46' W 118°13'0 0.0
2018-Aug-18 16:00N 33°46' W 118°13'0 0.0
2018-Aug-18 15:30N 33°46' W 118°13'0 0.0
2018-Aug-18 15:00N 33°46' W 118°13'1 1.9
2018-Aug-18 14:30N 33°45' W 118°13'0 0.6
2018-Aug-18 14:00N 33°45' W 118°13'1 2.7
2018-Aug-18 13:30N 33°44' W 118°12'1 2.0
2018-Aug-18 13:00N 33°43' W 118°11'3 5.1
2018-Aug-18 12:30N 33°41' W 118°11'2 4.9
2018-Aug-18 12:00N 33°40' W 118°08'4 8.6
2018-Aug-18 11:30N 33°44' W 118°11'2 4.5
2018-Aug-18 11:00N 33°45' W 118°13'0 0.8
2018-Aug-18 10:30N 33°45' W 118°13'1 1.8
2018-Aug-18 10:00N 33°46' W 118°13'0 0.0
2018-Aug-18 09:30N 33°46' W 118°13'0 0.0
2018-Aug-18 09:00N 33°46' W 118°13'0 0.0
2018-Aug-18 08:30N 33°46' W 118°13'0 0.0
2018-Aug-18 08:00N 33°46' W 118°13'0 0.0
2018-Aug-18 07:30N 33°46' W 118°13'0 0.0
2018-Aug-18 07:00N 33°46' W 118°13'0 0.0
2018-Aug-18 06:30N 33°46' W 118°13'0 0.0
2018-Aug-18 06:00N 33°46' W 118°13'0 0.0
2018-Aug-18 05:30N 33°46' W 118°13'0 0.0
2018-Aug-18 05:00N 33°46' W 118°13'0 0.0
2018-Aug-18 04:30N 33°46' W 118°13'0 0.0
2018-Aug-18 04:00N 33°46' W 118°13'0 0.0
2018-Aug-18 03:30N 33°46' W 118°13'0 0.0
2018-Aug-18 03:01N 33°46' W 118°13'0 0.0
2018-Aug-18 02:30N 33°46' W 118°13'0 0.0
2018-Aug-18 02:00N 33°46' W 118°13'0 0.0
2018-Aug-18 01:30N 33°46' W 118°13'0 0.0
2018-Aug-18 01:00N 33°46' W 118°13'0 0.0
2018-Aug-18 00:30N 33°46' W 118°13'0 0.0
2018-Aug-18 00:00N 33°46' W 118°13'1 1.4
2018-Aug-17 23:30N 33°46' W 118°13'3 7.0
2018-Aug-17 23:01N 33°43' W 118°16'3 5.1
2018-Aug-17 22:30N 33°46' W 118°16'0 0.3
2018-Aug-17 22:00N 33°46' W 118°16'1 2.9
2018-Aug-17 21:30N 33°44' W 118°17'2 4.9
2018-Aug-17 21:00N 33°43' W 118°14'3 5.6
2018-Aug-17 20:30N 33°46' W 118°13'0 0.0
2018-Aug-17 20:00N 33°46' W 118°13'0 0.0
2018-Aug-17 19:30N 33°46' W 118°13'1 2.3
2018-Aug-17 19:00N 33°45' W 118°12'0 0.5
2018-Aug-17 18:31N 33°44' W 118°12'2 3.6
2018-Aug-17 18:00N 33°46' W 118°13'0 0.0
2018-Aug-17 17:30N 33°46' W 118°13'0 0.0
2018-Aug-17 17:00N 33°46' W 118°13'0 0.0
2018-Aug-17 16:30N 33°46' W 118°13'0 0.0
2018-Aug-17 16:00N 33°46' W 118°13'0 0.0
2018-Aug-17 15:30N 33°46' W 118°13'0 0.0
2018-Aug-17 15:00N 33°46' W 118°13'1 0.6
2018-Aug-17 14:00N 33°46' W 118°13'2 3.6
2018-Aug-17 13:30N 33°44' W 118°12'1 1.9
2018-Aug-17 13:00N 33°45' W 118°13'0 0.1
2018-Aug-17 12:30N 33°45' W 118°13'0 0.9
2018-Aug-17 12:00N 33°45' W 118°13'2 3.5
2018-Aug-17 11:30N 33°46' W 118°13'0 0.0
2018-Aug-17 11:00N 33°46' W 118°13'0 0.0
2018-Aug-17 10:30N 33°46' W 118°13'0 0.0
2018-Aug-17 10:00N 33°46' W 118°13'0 0.0
2018-Aug-17 09:30N 33°46' W 118°13'0 0.0
2018-Aug-17 09:01N 33°46' W 118°13'0 0.0
2018-Aug-17 08:30N 33°46' W 118°13'1 1.8
2018-Aug-17 08:00N 33°45' W 118°13'0 0.0
2018-Aug-17 07:30N 33°45' W 118°13'0 0.0
2018-Aug-17 06:59N 33°45' W 118°13'0 0.1
2018-Aug-17 06:31N 33°45' W 118°13'1 1.3
2018-Aug-17 06:00N 33°45' W 118°13'2 4.5
2018-Aug-17 05:30N 33°43' W 118°11'3 5.3
2018-Aug-17 05:01N 33°41' W 118°09'3 6.4
2018-Aug-17 04:30N 33°44' W 118°11'2 4.0
2018-Aug-17 04:00N 33°45' W 118°13'0 0.8
2018-Aug-17 03:30N 33°45' W 118°13'0 0.1
2018-Aug-17 03:01N 33°45' W 118°13'1 1.9
2018-Aug-17 02:30N 33°46' W 118°13'0 0.0
2018-Aug-17 02:00N 33°46' W 118°13'0 0.0
2018-Aug-17 01:30N 33°46' W 118°13'0 0.0
2018-Aug-17 01:00N 33°46' W 118°13'2 3.1
2018-Aug-17 00:30N 33°45' W 118°13'3 6.1
2018-Aug-17 00:00N 33°44' W 118°17'2 3.2
2018-Aug-16 23:30N 33°46' W 118°17'0 0.2
2018-Aug-16 23:00N 33°45' W 118°17'2 3.4
2018-Aug-16 22:30N 33°44' W 118°16'2 3.5
2018-Aug-16 22:00N 33°43' W 118°15'3 6.8
2018-Aug-16 21:31N 33°46' W 118°13'1 1.1
2018-Aug-16 21:00N 33°46' W 118°13'0 0.0
2018-Aug-16 20:30N 33°46' W 118°13'0 0.0
2018-Aug-16 20:01N 33°46' W 118°13'2 4.6
2018-Aug-16 19:30N 33°44' W 118°13'3 5.3
2018-Aug-16 19:00N 33°45' W 118°16'1 2.5
2018-Aug-16 18:30N 33°46' W 118°16'1 1.1
2018-Aug-16 18:00N 33°45' W 118°16'2 4.4
2018-Aug-16 17:30N 33°43' W 118°16'2 4.1
2018-Aug-16 17:01N 33°43' W 118°14'1 2.7
2018-Aug-16 16:30N 33°45' W 118°13'2 3.1
2018-Aug-16 16:00N 33°46' W 118°13'0 0.0
2018-Aug-16 15:30N 33°46' W 118°13'0 0.0
2018-Aug-16 15:00N 33°46' W 118°13'0 0.0
2018-Aug-16 14:30N 33°46' W 118°13'0 0.0
2018-Aug-16 14:00N 33°46' W 118°13'0 0.0
2018-Aug-16 13:30N 33°46' W 118°13'0 0.0
2018-Aug-16 13:00N 33°46' W 118°13'2 3.1
2018-Aug-16 12:30N 33°45' W 118°13'1 1.7
2018-Aug-16 12:00N 33°45' W 118°12'1 2.6
2018-Aug-16 11:31N 33°44' W 118°11'1 2.8
2018-Aug-16 11:00N 33°44' W 118°12'2 4.0
2018-Aug-16 10:30N 33°46' W 118°13'0 0.0
2018-Aug-16 10:00N 33°46' W 118°13'0 0.0
2018-Aug-16 09:30N 33°46' W 118°13'0 0.0
2018-Aug-16 09:00N 33°46' W 118°13'1 1.9
2018-Aug-16 08:30N 33°45' W 118°13'0 0.1
2018-Aug-16 08:00N 33°45' W 118°13'1 1.8
2018-Aug-16 07:30N 33°44' W 118°13'2 4.8
2018-Aug-16 07:00N 33°43' W 118°11'2 4.7
2018-Aug-16 06:30N 33°41' W 118°09'1 2.4
2018-Aug-16 06:00N 33°41' W 118°08'2 4.1
2018-Aug-16 05:30N 33°42' W 118°10'4 8.8
2018-Aug-16 05:00N 33°46' W 118°13'1 1.3
2018-Aug-16 04:30N 33°46' W 118°13'0 0.0
2018-Aug-16 04:00N 33°46' W 118°13'0 0.0
2018-Aug-16 03:30N 33°46' W 118°13'0 0.0
2018-Aug-16 03:00N 33°46' W 118°13'0 0.0
2018-Aug-16 02:30N 33°46' W 118°13'0 0.0
2018-Aug-16 02:00N 33°46' W 118°13'0 0.0
2018-Aug-16 01:30N 33°46' W 118°13'0 0.0
2018-Aug-16 01:00N 33°46' W 118°13'0 0.0
2018-Aug-16 00:30N 33°46' W 118°13'0 0.0
2018-Aug-16 00:00N 33°46' W 118°13'0 0.0
2018-Aug-15 23:30N 33°46' W 118°13'0 0.0
2018-Aug-15 23:00N 33°46' W 118°13'0 0.0
2018-Aug-15 22:30N 33°46' W 118°13'0 0.0
2018-Aug-15 22:00N 33°46' W 118°13'0 0.0
2018-Aug-15 21:30N 33°46' W 118°13'0 0.0
2018-Aug-15 21:00N 33°46' W 118°13'0 0.0
2018-Aug-15 20:30N 33°46' W 118°13'0 0.0
2018-Aug-15 20:00N 33°46' W 118°13'0 0.0
2018-Aug-15 19:30N 33°46' W 118°13'0 0.0
2018-Aug-15 19:00N 33°46' W 118°13'1 2.3
2018-Aug-15 18:31N 33°45' W 118°13'3 6.2
2018-Aug-15 18:00N 33°44' W 118°16'2 4.6
2018-Aug-15 17:30N 33°46' W 118°16'3 5.1
2018-Aug-15 17:00N 33°43' W 118°16'1 2.0
2018-Aug-15 16:30N 33°44' W 118°15'0 0.0
2018-Aug-15 16:00N 33°44' W 118°15'0 0.0
2018-Aug-15 15:30N 33°44' W 118°15'0 0.0
2018-Aug-15 15:00N 33°44' W 118°15'0 0.0
2018-Aug-15 14:31N 33°44' W 118°15'0 0.0
2018-Aug-15 14:00N 33°44' W 118°15'1 2.9
2018-Aug-15 13:30N 33°45' W 118°16'0 0.2
2018-Aug-15 13:00N 33°45' W 118°16'3 5.9
2018-Aug-15 12:30N 33°43' W 118°14'1 3.0
2018-Aug-15 12:00N 33°44' W 118°12'1 2.0
2018-Aug-15 11:30N 33°44' W 118°12'2 4.0
2018-Aug-15 11:00N 33°45' W 118°13'1 2.0
2018-Aug-15 10:29N 33°46' W 118°13'0 0.0
2018-Aug-15 10:00N 33°46' W 118°13'0 0.0
2018-Aug-15 09:30N 33°46' W 118°13'0 0.0
2018-Aug-15 09:00N 33°46' W 118°13'0 0.0
2018-Aug-15 08:30N 33°46' W 118°13'0 0.0
2018-Aug-15 08:00N 33°46' W 118°13'2 3.8
2018-Aug-15 07:31N 33°44' W 118°12'1 1.1
2018-Aug-15 07:00N 33°45' W 118°13'0 1.0
2018-Aug-15 06:30N 33°44' W 118°13'2 3.5
2018-Aug-15 06:00N 33°46' W 118°13'0 0.0
2018-Aug-15 05:30N 33°46' W 118°13'0 0.0
2018-Aug-15 05:00N 33°46' W 118°13'0 0.0
2018-Aug-15 04:28N 33°46' W 118°13'0 0.0
2018-Aug-15 04:00N 33°46' W 118°13'1 1.5
2018-Aug-15 03:30N 33°46' W 118°13'3 5.7
2018-Aug-15 03:00N 33°44' W 118°10'3 5.8
2018-Aug-15 02:30N 33°46' W 118°13'0 0.1
2018-Aug-15 02:00N 33°46' W 118°13'0 0.0
2018-Aug-15 01:30N 33°46' W 118°13'0 0.0
2018-Aug-15 01:00N 33°46' W 118°13'1 2.5
2018-Aug-15 00:30N 33°45' W 118°13'1 1.5
2018-Aug-15 00:01N 33°44' W 118°12'1 1.2
2018-Aug-14 23:30N 33°44' W 118°13'2 3.8
2018-Aug-14 23:01N 33°46' W 118°13'0 0.0
2018-Aug-14 22:30N 33°46' W 118°13'2 3.0
2018-Aug-14 22:00N 33°45' W 118°13'3 5.9
2018-Aug-14 21:31N 33°44' W 118°16'1 2.1
2018-Aug-14 21:00N 33°45' W 118°16'0 0.7
2018-Aug-14 20:30N 33°45' W 118°17'2 4.6
2018-Aug-14 20:00N 33°43' W 118°15'3 6.5
2018-Aug-14 19:31N 33°46' W 118°16'2 3.7
2018-Aug-14 19:00N 33°44' W 118°17'2 4.9
2018-Aug-14 18:30N 33°44' W 118°14'2 3.4
2018-Aug-14 18:00N 33°45' W 118°13'1 1.8
2018-Aug-14 17:30N 33°46' W 118°13'0 0.0
2018-Aug-14 17:00N 33°46' W 118°13'0 0.0
2018-Aug-14 16:30N 33°46' W 118°13'0 0.0
2018-Aug-14 16:00N 33°46' W 118°13'1 2.0
2018-Aug-14 15:31N 33°45' W 118°13'2 3.1
2018-Aug-14 15:01N 33°44' W 118°14'1 1.5
2018-Aug-14 14:30N 33°44' W 118°13'1 2.5
2018-Aug-14 14:00N 33°46' W 118°13'0 0.0
2018-Aug-14 13:30N 33°46' W 118°13'0 0.0
2018-Aug-14 13:00N 33°46' W 118°13'0 0.0
2018-Aug-14 12:30N 33°46' W 118°13'1 2.3
2018-Aug-14 12:00N 33°45' W 118°14'0 0.6
2018-Aug-14 11:30N 33°45' W 118°14'3 5.5
2018-Aug-14 11:00N 33°44' W 118°11'3 6.1
2018-Aug-14 10:30N 33°46' W 118°13'0 0.8
2018-Aug-14 10:00N 33°46' W 118°13'0 0.0
2018-Aug-14 09:30N 33°46' W 118°13'0 0.0
2018-Aug-14 09:00N 33°46' W 118°13'0 0.0
2018-Aug-14 08:30N 33°46' W 118°13'0 0.0
2018-Aug-14 08:00N 33°46' W 118°13'1 1.3
2018-Aug-14 07:29N 33°46' W 118°13'1 2.0
2018-Aug-14 07:00N 33°45' W 118°13'0 0.0
2018-Aug-14 06:30N 33°45' W 118°13'2 3.1
2018-Aug-14 06:00N 33°43' W 118°13'1 1.4
2018-Aug-14 05:30N 33°44' W 118°13'2 4.0
2018-Aug-14 05:00N 33°46' W 118°13'0 0.4
2018-Aug-14 04:30N 33°46' W 118°13'0 0.2
2018-Aug-14 04:00N 33°46' W 118°13'0 0.0
2018-Aug-14 03:30N 33°46' W 118°13'0 0.0
2018-Aug-14 03:00N 33°46' W 118°13'0 0.0
2018-Aug-14 02:30N 33°46' W 118°13'0 0.0
2018-Aug-14 02:00N 33°46' W 118°13'0 0.0
2018-Aug-14 01:30N 33°46' W 118°13'2 3.7
2018-Aug-14 01:00N 33°45' W 118°13'3 5.3
2018-Aug-14 00:30N 33°43' W 118°16'3 5.1
2018-Aug-14 00:00N 33°45' W 118°17'0 0.3
2018-Aug-13 23:30N 33°46' W 118°17'2 4.3
2018-Aug-13 23:00N 33°43' W 118°16'2 3.0
2018-Aug-13 22:31N 33°43' W 118°15'2 3.8
2018-Aug-13 22:00N 33°44' W 118°13'1 2.8
2018-Aug-13 21:30N 33°46' W 118°13'1 1.6
2018-Aug-13 21:00N 33°45' W 118°13'5 9.3
2018-Aug-13 20:30N 33°42' W 118°17'510.7
2018-Aug-13 20:00N 33°44' W 118°23'5 9.6
2018-Aug-13 19:30N 33°48' W 118°26'510.8
2018-Aug-13 19:00N 33°53' W 118°27'1 2.9
2018-Aug-13 18:30N 33°54' W 118°27'0 0.0
2018-Aug-13 18:01N 33°54' W 118°27'0 0.2
2018-Aug-13 17:30N 33°54' W 118°27'1 1.3
2018-Aug-13 17:00N 33°54' W 118°27'0 0.5
2018-Aug-13 16:30N 33°53' W 118°28'1 1.8
2018-Aug-13 16:00N 33°54' W 118°27'0 0.5
2018-Aug-13 15:30N 33°54' W 118°27'1 1.7
2018-Aug-13 15:00N 33°53' W 118°27'4 7.3
2018-Aug-13 14:30N 33°50' W 118°28'4 8.7
2018-Aug-13 14:00N 33°45' W 118°26'4 8.4
2018-Aug-13 13:30N 33°43' W 118°22'4 8.6
2018-Aug-13 13:00N 33°42' W 118°17'4 7.5
2018-Aug-13 12:31N 33°44' W 118°13'1 2.8
2018-Aug-13 12:01N 33°45' W 118°12'1 2.1
2018-Aug-13 11:30N 33°45' W 118°13'1 2.3
2018-Aug-13 11:00N 33°46' W 118°13'0 0.0
2018-Aug-13 10:30N 33°46' W 118°13'0 0.0
2018-Aug-13 10:01N 33°46' W 118°13'0 0.0
2018-Aug-13 09:30N 33°46' W 118°13'0 0.0
2018-Aug-13 09:00N 33°46' W 118°13'0 0.0
2018-Aug-13 08:30N 33°46' W 118°13'0 0.0
2018-Aug-13 08:00N 33°46' W 118°13'0 0.0
2018-Aug-13 07:30N 33°46' W 118°13'0 0.8
2018-Aug-13 07:00N 33°46' W 118°13'0 0.4
2018-Aug-13 06:30N 33°46' W 118°13'2 3.8
2018-Aug-13 06:00N 33°44' W 118°13'1 2.6
2018-Aug-13 05:30N 33°44' W 118°12'0 0.5
2018-Aug-13 05:00N 33°44' W 118°11'1 2.4
2018-Aug-13 04:30N 33°43' W 118°13'3 5.7
2018-Aug-13 04:01N 33°43' W 118°16'1 1.8
2018-Aug-13 03:30N 33°44' W 118°15'0 0.7
2018-Aug-13 03:00N 33°44' W 118°15'0 0.1
2018-Aug-13 02:31N 33°44' W 118°15'1 2.1
2018-Aug-13 02:00N 33°43' W 118°14'3 5.1
2018-Aug-13 01:30N 33°45' W 118°12'0 0.2
2018-Aug-13 01:00N 33°45' W 118°13'0 0.8
2018-Aug-13 00:30N 33°45' W 118°13'1 1.4
2018-Aug-13 00:00N 33°45' W 118°13'0 0.0
2018-Aug-12 23:30N 33°45' W 118°13'0 0.0
2018-Aug-12 23:00N 33°45' W 118°13'0 0.1
2018-Aug-12 22:30N 33°45' W 118°13'1 1.1
2018-Aug-12 22:00N 33°45' W 118°14'2 4.1
2018-Aug-12 21:30N 33°44' W 118°12'1 1.4
2018-Aug-12 21:00N 33°43' W 118°11'3 6.1
2018-Aug-12 20:30N 33°46' W 118°13'0 0.3
2018-Aug-12 20:00N 33°46' W 118°13'0 0.0
2018-Aug-12 19:30N 33°46' W 118°13'0 0.0
2018-Aug-12 19:00N 33°46' W 118°13'0 0.0
2018-Aug-12 18:30N 33°46' W 118°13'0 0.0
2018-Aug-12 18:00N 33°46' W 118°13'1 2.8
2018-Aug-12 17:30N 33°45' W 118°13'1 2.5
2018-Aug-12 17:00N 33°44' W 118°12'0 0.3
2018-Aug-12 16:30N 33°44' W 118°12'1 1.5
2018-Aug-12 16:00N 33°44' W 118°12'0 0.0
2018-Aug-12 15:30N 33°44' W 118°12'0 0.0
2018-Aug-12 15:00N 33°44' W 118°12'0 0.0
2018-Aug-12 14:30N 33°44' W 118°12'0 0.0
2018-Aug-12 14:00N 33°44' W 118°12'0 0.0
2018-Aug-12 13:30N 33°44' W 118°12'1 1.5
2018-Aug-12 13:00N 33°44' W 118°12'1 1.1
2018-Aug-12 12:30N 33°45' W 118°12'0 0.1
2018-Aug-12 12:00N 33°45' W 118°12'1 1.5
2018-Aug-12 11:30N 33°45' W 118°13'1 1.4
2018-Aug-12 11:00N 33°46' W 118°13'0 0.0
2018-Aug-12 10:30N 33°46' W 118°13'0 0.0
2018-Aug-12 10:00N 33°46' W 118°13'0 0.0
2018-Aug-12 09:30N 33°46' W 118°13'0 0.0
2018-Aug-12 09:00N 33°46' W 118°13'0 0.0
2018-Aug-12 08:30N 33°46' W 118°13'0 0.0
2018-Aug-12 08:00N 33°46' W 118°13'0 0.0
2018-Aug-12 07:30N 33°46' W 118°13'0 0.0
2018-Aug-12 07:00N 33°46' W 118°13'0 0.3
2018-Aug-12 06:30N 33°46' W 118°13'0 0.0
2018-Aug-12 06:00N 33°46' W 118°13'1 1.0
2018-Aug-12 05:30N 33°46' W 118°13'0 0.1
2018-Aug-12 04:57N 33°46' W 118°13'0 0.0
2018-Aug-12 04:30N 33°46' W 118°13'0 0.0
2018-Aug-12 04:00N 33°46' W 118°13'0 0.2
2018-Aug-12 03:30N 33°46' W 118°13'2 3.4
2018-Aug-12 03:00N 33°45' W 118°13'4 7.5
2018-Aug-12 02:30N 33°42' W 118°10'1 1.4
2018-Aug-12 02:00N 33°42' W 118°09'4 8.0
2018-Aug-12 01:30N 33°44' W 118°13'1 2.9
2018-Aug-12 01:01N 33°46' W 118°13'0 0.0
2018-Aug-12 00:31N 33°46' W 118°13'0 0.0
2018-Aug-12 00:00N 33°46' W 118°13'0 0.0
2018-Aug-11 23:30N 33°46' W 118°13'0 0.0
2018-Aug-11 23:00N 33°46' W 118°13'0 0.0
2018-Aug-11 22:30N 33°46' W 118°13'0 0.0
2018-Aug-11 22:00N 33°46' W 118°13'0 0.0
2018-Aug-11 21:30N 33°46' W 118°13'0 0.0
2018-Aug-11 21:00N 33°46' W 118°13'0 0.0
2018-Aug-11 20:30N 33°46' W 118°13'0 0.0
2018-Aug-11 19:59N 33°46' W 118°13'0 0.0
2018-Aug-11 19:30N 33°46' W 118°13'0 0.0
2018-Aug-11 19:00N 33°46' W 118°13'0 0.0
2018-Aug-11 18:30N 33°46' W 118°13'0 0.0
2018-Aug-11 18:00N 33°46' W 118°13'0 0.0
2018-Aug-11 17:30N 33°46' W 118°13'0 0.0
2018-Aug-11 17:00N 33°46' W 118°13'0 0.0
2018-Aug-11 16:30N 33°46' W 118°13'0 0.0
2018-Aug-11 16:00N 33°46' W 118°13'0 0.0
2018-Aug-11 15:30N 33°46' W 118°13'1 3.0
2018-Aug-11 15:00N 33°44' W 118°12'0 0.4
2018-Aug-11 14:31N 33°44' W 118°12'1 2.4
2018-Aug-11 14:00N 33°43' W 118°11'1 1.7
2018-Aug-11 13:30N 33°44' W 118°12'0 1.0
2018-Aug-11 13:00N 33°44' W 118°12'2 4.9
2018-Aug-11 12:30N 33°46' W 118°13'0 0.4
2018-Aug-11 12:00N 33°46' W 118°14'0 0.0
2018-Aug-11 11:31N 33°46' W 118°14'0 0.0
2018-Aug-11 11:00N 33°46' W 118°14'0 1.0
2018-Aug-11 10:30N 33°46' W 118°13'0 0.3
2018-Aug-11 10:00N 33°46' W 118°13'0 0.0
2018-Aug-11 09:30N 33°46' W 118°13'0 0.0
2018-Aug-11 09:00N 33°46' W 118°13'0 0.0
2018-Aug-11 08:30N 33°46' W 118°13'0 0.0
2018-Aug-11 08:00N 33°46' W 118°13'0 0.9
2018-Aug-11 07:30N 33°46' W 118°13'0 0.7
2018-Aug-11 07:00N 33°46' W 118°13'0 0.0
2018-Aug-11 06:30N 33°46' W 118°13'0 0.0
2018-Aug-11 06:00N 33°46' W 118°13'0 0.0
2018-Aug-11 05:30N 33°46' W 118°13'0 0.0
2018-Aug-11 05:00N 33°46' W 118°13'0 0.0
2018-Aug-11 04:30N 33°46' W 118°13'  
Track history (hours):
 
Tides and Currents Weather Stations Pressure Air Temp Water Temp Dewpoint Dewpoint Depression Visibility Wind Speed Wind Dir Waves Ship Positions

Pacific Star

Owner: Foss Maritime Company, Seattle, WA. More information available from US FCC via Universal Licensing System and Coast Guard Vessel Documentation Center.

Last reported at 2018-Aug-21 04:03 UTC. Time now 2018-Aug-21 04:21 UTC.
Position N 33°46' W 118°13'.

Length 30 m; draft 5.4 m.

Type: Tug. MMSI: 367563590.

Date/timePositionNaut miles runAvg speedWind from/ knotsBaromVisibWave heightAir tempDewpointWater temp
2018-Aug-21 04:03N 33°46' W 118°13'0 0.0
2018-Aug-21 04:00N 33°46' W 118°13'0 0.0
2018-Aug-21 03:30N 33°46' W 118°13'0 0.0
2018-Aug-21 03:03N 33°46' W 118°13'0 0.0
2018-Aug-21 03:01N 33°46' W 118°13'1 1.8
2018-Aug-21 02:31N 33°45' W 118°13'0 0.0
2018-Aug-21 02:03N 33°45' W 118°13'0 0.0
2018-Aug-21 02:00N 33°45' W 118°13'0 0.8
2018-Aug-21 01:30N 33°45' W 118°13'2 3.5
2018-Aug-21 01:03N 33°44' W 118°12'0 6.1
2018-Aug-21 01:00N 33°44' W 118°11'3 5.1
2018-Aug-21 00:30N 33°41' W 118°11'4 8.0
2018-Aug-21 00:03N 33°44' W 118°13'0 7.5
2018-Aug-21 00:00N 33°45' W 118°13'0 0.7
2018-Aug-20 23:30N 33°45' W 118°13'1 3.2
2018-Aug-20 23:03N 33°46' W 118°13'0 1.0
2018-Aug-20 23:00N 33°46' W 118°13'0 0.6
2018-Aug-20 22:30N 33°46' W 118°13'0 0.0
2018-Aug-20 22:03N 33°46' W 118°13'0 0.0
2018-Aug-20 22:00N 33°46' W 118°13'0 0.0
2018-Aug-20 21:30N 33°46' W 118°13'0 0.0
2018-Aug-20 21:03N 33°46' W 118°13'0 0.0
2018-Aug-20 21:00N 33°46' W 118°13'0 0.0
2018-Aug-20 20:30N 33°46' W 118°13'0 0.0
2018-Aug-20 20:03N 33°46' W 118°13'0 0.0
2018-Aug-20 20:00N 33°46' W 118°13'0 0.0
2018-Aug-20 19:30N 33°46' W 118°13'0 0.0
2018-Aug-20 19:03N 33°46' W 118°13'0 0.1
2018-Aug-20 19:00N 33°46' W 118°13'3 6.3
2018-Aug-20 18:30N 33°43' W 118°14'3 5.7
2018-Aug-20 18:03N 33°45' W 118°16'0 6.8
2018-Aug-20 18:00N 33°45' W 118°16'1 1.3
2018-Aug-20 17:30N 33°46' W 118°16'0 0.0
2018-Aug-20 17:03N 33°46' W 118°16'0 0.1
2018-Aug-20 17:00N 33°46' W 118°16'0 0.1
2018-Aug-20 16:31N 33°46' W 118°16'0 0.9
2018-Aug-20 16:03N 33°45' W 118°16'0 0.8
2018-Aug-20 15:59N 33°45' W 118°16'1 2.9
2018-Aug-20 15:30N 33°44' W 118°17'2 4.8
2018-Aug-20 15:03N 33°43' W 118°15'0 0.1
2018-Aug-20 15:00N 33°43' W 118°15'0 0.3
2018-Aug-20 14:30N 33°43' W 118°15'3 6.2
2018-Aug-20 14:00N 33°45' W 118°17'0 0.2
2018-Aug-20 13:30N 33°45' W 118°17'2 3.6
2018-Aug-20 13:03N 33°44' W 118°16'0 5.6
2018-Aug-20 13:00N 33°43' W 118°16'2 3.2
2018-Aug-20 12:30N 33°43' W 118°15'1 3.3
2018-Aug-20 12:03N 33°44' W 118°13'0 6.6
2018-Aug-20 12:00N 33°44' W 118°13'2 4.1
2018-Aug-20 11:30N 33°46' W 118°13'0 0.0
2018-Aug-20 11:03N 33°46' W 118°13'0 0.0
2018-Aug-20 11:00N 33°46' W 118°13'0 0.0
2018-Aug-20 10:30N 33°46' W 118°13'0 0.0
2018-Aug-20 10:03N 33°46' W 118°13'0 0.0
2018-Aug-20 10:00N 33°46' W 118°13'0 0.0
2018-Aug-20 09:30N 33°46' W 118°13'0 0.0
2018-Aug-20 09:03N 33°46' W 118°13'0 0.0
2018-Aug-20 09:00N 33°46' W 118°13'0 0.0
2018-Aug-20 08:30N 33°46' W 118°13'0 0.0
2018-Aug-20 08:03N 33°46' W 118°13'0 0.0
2018-Aug-20 08:00N 33°46' W 118°13'0 0.0
2018-Aug-20 07:30N 33°46' W 118°13'0 0.0
2018-Aug-20 07:03N 33°46' W 118°13'0 0.0
2018-Aug-20 07:00N 33°46' W 118°13'0 0.0
2018-Aug-20 06:30N 33°46' W 118°13'0 0.0
2018-Aug-20 06:03N 33°46' W 118°13'0 0.0
2018-Aug-20 06:00N 33°46' W 118°13'0 0.6
2018-Aug-20 05:30N 33°46' W 118°13'0 0.3
2018-Aug-20 05:03N 33°46' W 118°13'0 2.1
2018-Aug-20 05:00N 33°46' W 118°13'0 2.2
2018-Aug-20 04:47N 33°46' W 118°13'1 3.3
2018-Aug-20 04:30N 33°45' W 118°13'2 4.8
2018-Aug-20 04:00N 33°44' W 118°11'1 2.8
2018-Aug-20 03:30N 33°44' W 118°12'0 0.7
2018-Aug-20 03:00N 33°44' W 118°12'0 0.0
2018-Aug-20 02:30N 33°44' W 118°12'4 7.4
2018-Aug-20 02:01N 33°44' W 118°17'2 4.0
2018-Aug-20 01:30N 33°46' W 118°16'0 0.5
2018-Aug-20 01:00N 33°46' W 118°16'2 4.2
2018-Aug-20 00:30N 33°44' W 118°16'3 5.8
2018-Aug-20 00:00N 33°44' W 118°13'1 1.9
2018-Aug-19 23:30N 33°45' W 118°13'0 0.5
2018-Aug-19 23:00N 33°45' W 118°13'2 3.2
2018-Aug-19 22:30N 33°46' W 118°13'0 0.0
2018-Aug-19 22:00N 33°46' W 118°13'0 0.0
2018-Aug-19 21:30N 33°46' W 118°13'0 0.0
2018-Aug-19 21:00N 33°46' W 118°13'0 0.0
2018-Aug-19 20:30N 33°46' W 118°13'0 0.0
2018-Aug-19 20:00N 33°46' W 118°13'0 0.0
2018-Aug-19 19:30N 33°46' W 118°13'0 0.0
2018-Aug-19 19:00N 33°46' W 118°13'0 0.0
2018-Aug-19 18:30N 33°46' W 118°13'0 0.0
2018-Aug-19 18:01N 33°46' W 118°13'0 0.0
2018-Aug-19 17:30N 33°46' W 118°13'0 0.0
2018-Aug-19 17:00N 33°46' W 118°13'0 0.0
2018-Aug-19 16:30N 33°46' W 118°13'0 0.0
2018-Aug-19 16:00N 33°46' W 118°13'0 0.0
2018-Aug-19 15:30N 33°46' W 118°13'0 0.0
2018-Aug-19 15:00N 33°46' W 118°13'0 0.0
2018-Aug-19 14:30N 33°46' W 118°13'1 1.0
2018-Aug-19 14:00N 33°46' W 118°13'2 3.5
2018-Aug-19 13:30N 33°44' W 118°12'0 0.6
2018-Aug-19 13:00N 33°45' W 118°12'0 0.3
2018-Aug-19 12:30N 33°44' W 118°12'0 0.1
2018-Aug-19 12:00N 33°44' W 118°12'1 2.9
2018-Aug-19 11:30N 33°43' W 118°11'1 1.1
2018-Aug-19 11:00N 33°44' W 118°11'3 5.5
2018-Aug-19 10:30N 33°46' W 118°13'0 0.0
2018-Aug-19 10:00N 33°46' W 118°13'0 0.0
2018-Aug-19 09:31N 33°46' W 118°13'0 0.0
2018-Aug-19 09:00N 33°46' W 118°13'0 0.0
2018-Aug-19 08:30N 33°46' W 118°13'0 0.0
2018-Aug-19 08:00N 33°46' W 118°13'0 0.0
2018-Aug-19 07:30N 33°46' W 118°13'0 0.0
2018-Aug-19 07:00N 33°46' W 118°13'0 0.0
2018-Aug-19 06:30N 33°46' W 118°13'0 0.0
2018-Aug-19 06:00N 33°46' W 118°13'0 0.0
2018-Aug-19 05:30N 33°46' W 118°13'0 0.0
2018-Aug-19 05:00N 33°46' W 118°13'0 0.0
2018-Aug-19 04:30N 33°46' W 118°13'0 0.0
2018-Aug-19 04:00N 33°46' W 118°13'0 0.0
2018-Aug-19 03:30N 33°46' W 118°13'2 3.3
2018-Aug-19 03:00N 33°45' W 118°13'1 2.2
2018-Aug-19 02:30N 33°45' W 118°14'0 0.1
2018-Aug-19 02:00N 33°45' W 118°14'0 0.1
2018-Aug-19 01:30N 33°45' W 118°14'0 0.0
2018-Aug-19 01:01N 33°45' W 118°14'0 0.1
2018-Aug-19 00:30N 33°45' W 118°14'1 1.8
2018-Aug-19 00:00N 33°46' W 118°14'1 1.8
2018-Aug-18 23:30N 33°45' W 118°13'2 4.8
2018-Aug-18 23:00N 33°43' W 118°11'1 2.0
2018-Aug-18 22:30N 33°44' W 118°12'2 4.3
2018-Aug-18 22:00N 33°46' W 118°13'0 0.0
2018-Aug-18 21:30N 33°46' W 118°13'0 0.0
2018-Aug-18 21:00N 33°46' W 118°13'0 0.0
2018-Aug-18 20:30N 33°46' W 118°13'0 0.0
2018-Aug-18 20:00N 33°46' W 118°13'0 0.0
2018-Aug-18 19:30N 33°46' W 118°13'0 0.0
2018-Aug-18 19:00N 33°46' W 118°13'0 0.0
2018-Aug-18 18:30N 33°46' W 118°13'0 0.0
2018-Aug-18 18:00N 33°46' W 118°13'0 0.0
2018-Aug-18 17:30N 33°46' W 118°13'0 0.0
2018-Aug-18 17:00N 33°46' W 118°13'0 0.0
2018-Aug-18 16:30N 33°46' W 118°13'0 0.0
2018-Aug-18 16:00N 33°46' W 118°13'0 0.0
2018-Aug-18 15:30N 33°46' W 118°13'0 0.0
2018-Aug-18 15:00N 33°46' W 118°13'1 1.9
2018-Aug-18 14:30N 33°45' W 118°13'0 0.6
2018-Aug-18 14:00N 33°45' W 118°13'1 2.7
2018-Aug-18 13:30N 33°44' W 118°12'1 2.0
2018-Aug-18 13:00N 33°43' W 118°11'3 5.1
2018-Aug-18 12:30N 33°41' W 118°11'2 4.9
2018-Aug-18 12:00N 33°40' W 118°08'4 8.6
2018-Aug-18 11:30N 33°44' W 118°11'2 4.5
2018-Aug-18 11:00N 33°45' W 118°13'0 0.8
2018-Aug-18 10:30N 33°45' W 118°13'1 1.8
2018-Aug-18 10:00N 33°46' W 118°13'0 0.0
2018-Aug-18 09:30N 33°46' W 118°13'0 0.0
2018-Aug-18 09:00N 33°46' W 118°13'0 0.0
2018-Aug-18 08:30N 33°46' W 118°13'0 0.0
2018-Aug-18 08:00N 33°46' W 118°13'0 0.0
2018-Aug-18 07:30N 33°46' W 118°13'0 0.0
2018-Aug-18 07:00N 33°46' W 118°13'0 0.0
2018-Aug-18 06:30N 33°46' W 118°13'0 0.0
2018-Aug-18 06:00N 33°46' W 118°13'0 0.0
2018-Aug-18 05:30N 33°46' W 118°13'0 0.0
2018-Aug-18 05:00N 33°46' W 118°13'0 0.0
2018-Aug-18 04:30N 33°46' W 118°13'0 0.0
2018-Aug-18 04:00N 33°46' W 118°13'0 0.0
2018-Aug-18 03:30N 33°46' W 118°13'0 0.0
2018-Aug-18 03:01N 33°46' W 118°13'0 0.0
2018-Aug-18 02:30N 33°46' W 118°13'0 0.0
2018-Aug-18 02:00N 33°46' W 118°13'0 0.0
2018-Aug-18 01:30N 33°46' W 118°13'0 0.0
2018-Aug-18 01:00N 33°46' W 118°13'0 0.0
2018-Aug-18 00:30N 33°46' W 118°13'0 0.0
2018-Aug-18 00:00N 33°46' W 118°13'1 1.4
2018-Aug-17 23:30N 33°46' W 118°13'3 7.0
2018-Aug-17 23:01N 33°43' W 118°16'3 5.1
2018-Aug-17 22:30N 33°46' W 118°16'0 0.3
2018-Aug-17 22:00N 33°46' W 118°16'1 2.9
2018-Aug-17 21:30N 33°44' W 118°17'2 4.9
2018-Aug-17 21:00N 33°43' W 118°14'3 5.6
2018-Aug-17 20:30N 33°46' W 118°13'0 0.0
2018-Aug-17 20:00N 33°46' W 118°13'0 0.0
2018-Aug-17 19:30N 33°46' W 118°13'1 2.3
2018-Aug-17 19:00N 33°45' W 118°12'0 0.5
2018-Aug-17 18:31N 33°44' W 118°12'2 3.6
2018-Aug-17 18:00N 33°46' W 118°13'0 0.0
2018-Aug-17 17:30N 33°46' W 118°13'0 0.0
2018-Aug-17 17:00N 33°46' W 118°13'0 0.0
2018-Aug-17 16:30N 33°46' W 118°13'0 0.0
2018-Aug-17 16:00N 33°46' W 118°13'0 0.0
2018-Aug-17 15:30N 33°46' W 118°13'0 0.0
2018-Aug-17 15:00N 33°46' W 118°13'1 0.6
2018-Aug-17 14:00N 33°46' W 118°13'2 3.6
2018-Aug-17 13:30N 33°44' W 118°12'1 1.9
2018-Aug-17 13:00N 33°45' W 118°13'0 0.1
2018-Aug-17 12:30N 33°45' W 118°13'0 0.9
2018-Aug-17 12:00N 33°45' W 118°13'2 3.5
2018-Aug-17 11:30N 33°46' W 118°13'0 0.0
2018-Aug-17 11:00N 33°46' W 118°13'0 0.0
2018-Aug-17 10:30N 33°46' W 118°13'0 0.0
2018-Aug-17 10:00N 33°46' W 118°13'0 0.0
2018-Aug-17 09:30N 33°46' W 118°13'0 0.0
2018-Aug-17 09:01N 33°46' W 118°13'0 0.0
2018-Aug-17 08:30N 33°46' W 118°13'1 1.8
2018-Aug-17 08:00N 33°45' W 118°13'0 0.0
2018-Aug-17 07:30N 33°45' W 118°13'0 0.0
2018-Aug-17 06:59N 33°45' W 118°13'0 0.1
2018-Aug-17 06:31N 33°45' W 118°13'1 1.3
2018-Aug-17 06:00N 33°45' W 118°13'2 4.5
2018-Aug-17 05:30N 33°43' W 118°11'3 5.3
2018-Aug-17 05:01N 33°41' W 118°09'3 6.4
2018-Aug-17 04:30N 33°44' W 118°11'2 4.0
2018-Aug-17 04:00N 33°45' W 118°13'0 0.8
2018-Aug-17 03:30N 33°45' W 118°13'0 0.1
2018-Aug-17 03:01N 33°45' W 118°13'1 1.9
2018-Aug-17 02:30N 33°46' W 118°13'0 0.0
2018-Aug-17 02:00N 33°46' W 118°13'0 0.0
2018-Aug-17 01:30N 33°46' W 118°13'0 0.0
2018-Aug-17 01:00N 33°46' W 118°13'2 3.1
2018-Aug-17 00:30N 33°45' W 118°13'3 6.1
2018-Aug-17 00:00N 33°44' W 118°17'2 3.2
2018-Aug-16 23:30N 33°46' W 118°17'0 0.2
2018-Aug-16 23:00N 33°45' W 118°17'2 3.4
2018-Aug-16 22:30N 33°44' W 118°16'2 3.5
2018-Aug-16 22:00N 33°43' W 118°15'3 6.8
2018-Aug-16 21:31N 33°46' W 118°13'1 1.1
2018-Aug-16 21:00N 33°46' W 118°13'0 0.0
2018-Aug-16 20:30N 33°46' W 118°13'0 0.0
2018-Aug-16 20:01N 33°46' W 118°13'2 4.6
2018-Aug-16 19:30N 33°44' W 118°13'3 5.3
2018-Aug-16 19:00N 33°45' W 118°16'1 2.5
2018-Aug-16 18:30N 33°46' W 118°16'1 1.1
2018-Aug-16 18:00N 33°45' W 118°16'2 4.4
2018-Aug-16 17:30N 33°43' W 118°16'2 4.1
2018-Aug-16 17:01N 33°43' W 118°14'1 2.7
2018-Aug-16 16:30N 33°45' W 118°13'2 3.1
2018-Aug-16 16:00N 33°46' W 118°13'0 0.0
2018-Aug-16 15:30N 33°46' W 118°13'0 0.0
2018-Aug-16 15:00N 33°46' W 118°13'0 0.0
2018-Aug-16 14:30N 33°46' W 118°13'0 0.0
2018-Aug-16 14:00N 33°46' W 118°13'0 0.0
2018-Aug-16 13:30N 33°46' W 118°13'0 0.0
2018-Aug-16 13:00N 33°46' W 118°13'2 3.1
2018-Aug-16 12:30N 33°45' W 118°13'1 1.7
2018-Aug-16 12:00N 33°45' W 118°12'1 2.6
2018-Aug-16 11:31N 33°44' W 118°11'1 2.8
2018-Aug-16 11:00N 33°44' W 118°12'2 4.0
2018-Aug-16 10:30N 33°46' W 118°13'0 0.0
2018-Aug-16 10:00N 33°46' W 118°13'0 0.0
2018-Aug-16 09:30N 33°46' W 118°13'0 0.0
2018-Aug-16 09:00N 33°46' W 118°13'1 1.9
2018-Aug-16 08:30N 33°45' W 118°13'0 0.1
2018-Aug-16 08:00N 33°45' W 118°13'1 1.8
2018-Aug-16 07:30N 33°44' W 118°13'2 4.8
2018-Aug-16 07:00N 33°43' W 118°11'2 4.7
2018-Aug-16 06:30N 33°41' W 118°09'1 2.4
2018-Aug-16 06:00N 33°41' W 118°08'2 4.1
2018-Aug-16 05:30N 33°42' W 118°10'4 8.8
2018-Aug-16 05:00N 33°46' W 118°13'1 1.3
2018-Aug-16 04:30N 33°46' W 118°13'0 0.0
2018-Aug-16 04:00N 33°46' W 118°13'0 0.0
2018-Aug-16 03:30N 33°46' W 118°13'0 0.0
2018-Aug-16 03:00N 33°46' W 118°13'0 0.0
2018-Aug-16 02:30N 33°46' W 118°13'0 0.0
2018-Aug-16 02:00N 33°46' W 118°13'0 0.0
2018-Aug-16 01:30N 33°46' W 118°13'0 0.0
2018-Aug-16 01:00N 33°46' W 118°13'0 0.0
2018-Aug-16 00:30N 33°46' W 118°13'0 0.0
2018-Aug-16 00:00N 33°46' W 118°13'0 0.0
2018-Aug-15 23:30N 33°46' W 118°13'0 0.0
2018-Aug-15 23:00N 33°46' W 118°13'0 0.0
2018-Aug-15 22:30N 33°46' W 118°13'0 0.0
2018-Aug-15 22:00N 33°46' W 118°13'0 0.0
2018-Aug-15 21:30N 33°46' W 118°13'0 0.0
2018-Aug-15 21:00N 33°46' W 118°13'0 0.0
2018-Aug-15 20:30N 33°46' W 118°13'0 0.0
2018-Aug-15 20:00N 33°46' W 118°13'0 0.0
2018-Aug-15 19:30N 33°46' W 118°13'0 0.0
2018-Aug-15 19:00N 33°46' W 118°13'1 2.3
2018-Aug-15 18:31N 33°45' W 118°13'3 6.2
2018-Aug-15 18:00N 33°44' W 118°16'2 4.6
2018-Aug-15 17:30N 33°46' W 118°16'3 5.1
2018-Aug-15 17:00N 33°43' W 118°16'1 2.0
2018-Aug-15 16:30N 33°44' W 118°15'0 0.0
2018-Aug-15 16:00N 33°44' W 118°15'0 0.0
2018-Aug-15 15:30N 33°44' W 118°15'0 0.0
2018-Aug-15 15:00N 33°44' W 118°15'0 0.0
2018-Aug-15 14:31N 33°44' W 118°15'0 0.0
2018-Aug-15 14:00N 33°44' W 118°15'1 2.9
2018-Aug-15 13:30N 33°45' W 118°16'0 0.2
2018-Aug-15 13:00N 33°45' W 118°16'3 5.9
2018-Aug-15 12:30N 33°43' W 118°14'1 3.0
2018-Aug-15 12:00N 33°44' W 118°12'1 2.0
2018-Aug-15 11:30N 33°44' W 118°12'2 4.0
2018-Aug-15 11:00N 33°45' W 118°13'1 2.0
2018-Aug-15 10:29N 33°46' W 118°13'0 0.0
2018-Aug-15 10:00N 33°46' W 118°13'0 0.0
2018-Aug-15 09:30N 33°46' W 118°13'0 0.0
2018-Aug-15 09:00N 33°46' W 118°13'0 0.0
2018-Aug-15 08:30N 33°46' W 118°13'0 0.0
2018-Aug-15 08:00N 33°46' W 118°13'2 3.8
2018-Aug-15 07:31N 33°44' W 118°12'1 1.1
2018-Aug-15 07:00N 33°45' W 118°13'0 1.0
2018-Aug-15 06:30N 33°44' W 118°13'2 3.5
2018-Aug-15 06:00N 33°46' W 118°13'0 0.0
2018-Aug-15 05:30N 33°46' W 118°13'0 0.0
2018-Aug-15 05:00N 33°46' W 118°13'0 0.0
2018-Aug-15 04:28N 33°46' W 118°13'0 0.0
2018-Aug-15 04:00N 33°46' W 118°13'1 1.5
2018-Aug-15 03:30N 33°46' W 118°13'3 5.7
2018-Aug-15 03:00N 33°44' W 118°10'3 5.8
2018-Aug-15 02:30N 33°46' W 118°13'0 0.1
2018-Aug-15 02:00N 33°46' W 118°13'0 0.0
2018-Aug-15 01:30N 33°46' W 118°13'0 0.0
2018-Aug-15 01:00N 33°46' W 118°13'1 2.5
2018-Aug-15 00:30N 33°45' W 118°13'1 1.5
2018-Aug-15 00:01N 33°44' W 118°12'1 1.2
2018-Aug-14 23:30N 33°44' W 118°13'2 3.8
2018-Aug-14 23:01N 33°46' W 118°13'0 0.0
2018-Aug-14 22:30N 33°46' W 118°13'2 3.0
2018-Aug-14 22:00N 33°45' W 118°13'3 5.9
2018-Aug-14 21:31N 33°44' W 118°16'1 2.1
2018-Aug-14 21:00N 33°45' W 118°16'0 0.7
2018-Aug-14 20:30N 33°45' W 118°17'2 4.6
2018-Aug-14 20:00N 33°43' W 118°15'3 6.5
2018-Aug-14 19:31N 33°46' W 118°16'2 3.7
2018-Aug-14 19:00N 33°44' W 118°17'2 4.9
2018-Aug-14 18:30N 33°44' W 118°14'2 3.4
2018-Aug-14 18:00N 33°45' W 118°13'1 1.8
2018-Aug-14 17:30N 33°46' W 118°13'0 0.0
2018-Aug-14 17:00N 33°46' W 118°13'0 0.0
2018-Aug-14 16:30N 33°46' W 118°13'0 0.0
2018-Aug-14 16:00N 33°46' W 118°13'1 2.0
2018-Aug-14 15:31N 33°45' W 118°13'2 3.1
2018-Aug-14 15:01N 33°44' W 118°14'1 1.5
2018-Aug-14 14:30N 33°44' W 118°13'1 2.5
2018-Aug-14 14:00N 33°46' W 118°13'0 0.0
2018-Aug-14 13:30N 33°46' W 118°13'0 0.0
2018-Aug-14 13:00N 33°46' W 118°13'0 0.0
2018-Aug-14 12:30N 33°46' W 118°13'1 2.3
2018-Aug-14 12:00N 33°45' W 118°14'0 0.6
2018-Aug-14 11:30N 33°45' W 118°14'3 5.5
2018-Aug-14 11:00N 33°44' W 118°11'3 6.1
2018-Aug-14 10:30N 33°46' W 118°13'0 0.8
2018-Aug-14 10:00N 33°46' W 118°13'0 0.0
2018-Aug-14 09:30N 33°46' W 118°13'0 0.0
2018-Aug-14 09:00N 33°46' W 118°13'0 0.0
2018-Aug-14 08:30N 33°46' W 118°13'0 0.0
2018-Aug-14 08:00N 33°46' W 118°13'1 1.3
2018-Aug-14 07:29N 33°46' W 118°13'1 2.0
2018-Aug-14 07:00N 33°45' W 118°13'0 0.0
2018-Aug-14 06:30N 33°45' W 118°13'2 3.1
2018-Aug-14 06:00N 33°43' W 118°13'1 1.4
2018-Aug-14 05:30N 33°44' W 118°13'2 4.0
2018-Aug-14 05:00N 33°46' W 118°13'0 0.4
2018-Aug-14 04:30N 33°46' W 118°13'0 0.2
2018-Aug-14 04:00N 33°46' W 118°13'0 0.0
2018-Aug-14 03:30N 33°46' W 118°13'0 0.0
2018-Aug-14 03:00N 33°46' W 118°13'0 0.0
2018-Aug-14 02:30N 33°46' W 118°13'0 0.0
2018-Aug-14 02:00N 33°46' W 118°13'0 0.0
2018-Aug-14 01:30N 33°46' W 118°13'2 3.7
2018-Aug-14 01:00N 33°45' W 118°13'3 5.3
2018-Aug-14 00:30N 33°43' W 118°16'3 5.1
2018-Aug-14 00:00N 33°45' W 118°17'0 0.3
2018-Aug-13 23:30N 33°46' W 118°17'2 4.3
2018-Aug-13 23:00N 33°43' W 118°16'2 3.0
2018-Aug-13 22:31N 33°43' W 118°15'2 3.8
2018-Aug-13 22:00N 33°44' W 118°13'1 2.8
2018-Aug-13 21:30N 33°46' W 118°13'1 1.6
2018-Aug-13 21:00N 33°45' W 118°13'5 9.3
2018-Aug-13 20:30N 33°42' W 118°17'510.7
2018-Aug-13 20:00N 33°44' W 118°23'5 9.6
2018-Aug-13 19:30N 33°48' W 118°26'510.8
2018-Aug-13 19:00N 33°53' W 118°27'1 2.9
2018-Aug-13 18:30N 33°54' W 118°27'0 0.0
2018-Aug-13 18:01N 33°54' W 118°27'0 0.2
2018-Aug-13 17:30N 33°54' W 118°27'1 1.3
2018-Aug-13 17:00N 33°54' W 118°27'0 0.5
2018-Aug-13 16:30N 33°53' W 118°28'1 1.8
2018-Aug-13 16:00N 33°54' W 118°27'0 0.5
2018-Aug-13 15:30N 33°54' W 118°27'1 1.7
2018-Aug-13 15:00N 33°53' W 118°27'4 7.3
2018-Aug-13 14:30N 33°50' W 118°28'4 8.7
2018-Aug-13 14:00N 33°45' W 118°26'4 8.4
2018-Aug-13 13:30N 33°43' W 118°22'4 8.6
2018-Aug-13 13:00N 33°42' W 118°17'4 7.5
2018-Aug-13 12:31N 33°44' W 118°13'1 2.8
2018-Aug-13 12:01N 33°45' W 118°12'1 2.1
2018-Aug-13 11:30N 33°45' W 118°13'1 2.3
2018-Aug-13 11:00N 33°46' W 118°13'0 0.0
2018-Aug-13 10:30N 33°46' W 118°13'0 0.0
2018-Aug-13 10:01N 33°46' W 118°13'0 0.0
2018-Aug-13 09:30N 33°46' W 118°13'0 0.0
2018-Aug-13 09:00N 33°46' W 118°13'0 0.0
2018-Aug-13 08:30N 33°46' W 118°13'0 0.0
2018-Aug-13 08:00N 33°46' W 118°13'0 0.0
2018-Aug-13 07:30N 33°46' W 118°13'0 0.8
2018-Aug-13 07:00N 33°46' W 118°13'0 0.4
2018-Aug-13 06:30N 33°46' W 118°13'2 3.8
2018-Aug-13 06:00N 33°44' W 118°13'1 2.6
2018-Aug-13 05:30N 33°44' W 118°12'0 0.5
2018-Aug-13 05:00N 33°44' W 118°11'1 2.4
2018-Aug-13 04:30N 33°43' W 118°13'3 5.7
2018-Aug-13 04:01N 33°43' W 118°16'1 1.8
2018-Aug-13 03:30N 33°44' W 118°15'0 0.7
2018-Aug-13 03:00N 33°44' W 118°15'0 0.1
2018-Aug-13 02:31N 33°44' W 118°15'1 2.1
2018-Aug-13 02:00N 33°43' W 118°14'3 5.1
2018-Aug-13 01:30N 33°45' W 118°12'0 0.2
2018-Aug-13 01:00N 33°45' W 118°13'0 0.8
2018-Aug-13 00:30N 33°45' W 118°13'1 1.4
2018-Aug-13 00:00N 33°45' W 118°13'0 0.0
2018-Aug-12 23:30N 33°45' W 118°13'0 0.0
2018-Aug-12 23:00N 33°45' W 118°13'0 0.1
2018-Aug-12 22:30N 33°45' W 118°13'1 1.1
2018-Aug-12 22:00N 33°45' W 118°14'2 4.1
2018-Aug-12 21:30N 33°44' W 118°12'1 1.4
2018-Aug-12 21:00N 33°43' W 118°11'3 6.1
2018-Aug-12 20:30N 33°46' W 118°13'0 0.3
2018-Aug-12 20:00N 33°46' W 118°13'0 0.0
2018-Aug-12 19:30N 33°46' W 118°13'0 0.0
2018-Aug-12 19:00N 33°46' W 118°13'0 0.0
2018-Aug-12 18:30N 33°46' W 118°13'0 0.0
2018-Aug-12 18:00N 33°46' W 118°13'1 2.8
2018-Aug-12 17:30N 33°45' W 118°13'1 2.5
2018-Aug-12 17:00N 33°44' W 118°12'0 0.3
2018-Aug-12 16:30N 33°44' W 118°12'1 1.5
2018-Aug-12 16:00N 33°44' W 118°12'0 0.0
2018-Aug-12 15:30N 33°44' W 118°12'0 0.0
2018-Aug-12 15:00N 33°44' W 118°12'0 0.0
2018-Aug-12 14:30N 33°44' W 118°12'0 0.0
2018-Aug-12 14:00N 33°44' W 118°12'0 0.0
2018-Aug-12 13:30N 33°44' W 118°12'1 1.5
2018-Aug-12 13:00N 33°44' W 118°12'1 1.1
2018-Aug-12 12:30N 33°45' W 118°12'0 0.1
2018-Aug-12 12:00N 33°45' W 118°12'1 1.5
2018-Aug-12 11:30N 33°45' W 118°13'1 1.4
2018-Aug-12 11:00N 33°46' W 118°13'0 0.0
2018-Aug-12 10:30N 33°46' W 118°13'0 0.0
2018-Aug-12 10:00N 33°46' W 118°13'0 0.0
2018-Aug-12 09:30N 33°46' W 118°13'0 0.0
2018-Aug-12 09:00N 33°46' W 118°13'0 0.0
2018-Aug-12 08:30N 33°46' W 118°13'0 0.0
2018-Aug-12 08:00N 33°46' W 118°13'0 0.0
2018-Aug-12 07:30N 33°46' W 118°13'0 0.0
2018-Aug-12 07:00N 33°46' W 118°13'0 0.3
2018-Aug-12 06:30N 33°46' W 118°13'0 0.0
2018-Aug-12 06:00N 33°46' W 118°13'1 1.0
2018-Aug-12 05:30N 33°46' W 118°13'0 0.1
2018-Aug-12 04:57N 33°46' W 118°13'0 0.0
2018-Aug-12 04:30N 33°46' W 118°13'0 0.0
2018-Aug-12 04:00N 33°46' W 118°13'0 0.2
2018-Aug-12 03:30N 33°46' W 118°13'2 3.4
2018-Aug-12 03:00N 33°45' W 118°13'4 7.5
2018-Aug-12 02:30N 33°42' W 118°10'1 1.4
2018-Aug-12 02:00N 33°42' W 118°09'4 8.0
2018-Aug-12 01:30N 33°44' W 118°13'1 2.9
2018-Aug-12 01:01N 33°46' W 118°13'0 0.0
2018-Aug-12 00:31N 33°46' W 118°13'0 0.0
2018-Aug-12 00:00N 33°46' W 118°13'0 0.0
2018-Aug-11 23:30N 33°46' W 118°13'0 0.0
2018-Aug-11 23:00N 33°46' W 118°13'0 0.0
2018-Aug-11 22:30N 33°46' W 118°13'0 0.0
2018-Aug-11 22:00N 33°46' W 118°13'0 0.0
2018-Aug-11 21:30N 33°46' W 118°13'0 0.0
2018-Aug-11 21:00N 33°46' W 118°13'0 0.0
2018-Aug-11 20:30N 33°46' W 118°13'0 0.0
2018-Aug-11 19:59N 33°46' W 118°13'0 0.0
2018-Aug-11 19:30N 33°46' W 118°13'0 0.0
2018-Aug-11 19:00N 33°46' W 118°13'0 0.0
2018-Aug-11 18:30N 33°46' W 118°13'0 0.0
2018-Aug-11 18:00N 33°46' W 118°13'0 0.0
2018-Aug-11 17:30N 33°46' W 118°13'0 0.0
2018-Aug-11 17:00N 33°46' W 118°13'0 0.0
2018-Aug-11 16:30N 33°46' W 118°13'0 0.0
2018-Aug-11 16:00N 33°46' W 118°13'0 0.0
2018-Aug-11 15:30N 33°46' W 118°13'1 3.0
2018-Aug-11 15:00N 33°44' W 118°12'0 0.4
2018-Aug-11 14:31N 33°44' W 118°12'1 2.4
2018-Aug-11 14:00N 33°43' W 118°11'1 1.7
2018-Aug-11 13:30N 33°44' W 118°12'0 1.0
2018-Aug-11 13:00N 33°44' W 118°12'2 4.9
2018-Aug-11 12:30N 33°46' W 118°13'0 0.4
2018-Aug-11 12:00N 33°46' W 118°14'0 0.0
2018-Aug-11 11:31N 33°46' W 118°14'0 0.0
2018-Aug-11 11:00N 33°46' W 118°14'0 1.0
2018-Aug-11 10:30N 33°46' W 118°13'0 0.3
2018-Aug-11 10:00N 33°46' W 118°13'0 0.0
2018-Aug-11 09:30N 33°46' W 118°13'0 0.0
2018-Aug-11 09:00N 33°46' W 118°13'0 0.0
2018-Aug-11 08:30N 33°46' W 118°13'0 0.0
2018-Aug-11 08:00N 33°46' W 118°13'0 0.9
2018-Aug-11 07:30N 33°46' W 118°13'0 0.7
2018-Aug-11 07:00N 33°46' W 118°13'0 0.0
2018-Aug-11 06:30N 33°46' W 118°13'0 0.0
2018-Aug-11 06:00N 33°46' W 118°13'0 0.0
2018-Aug-11 05:30N 33°46' W 118°13'0 0.0
2018-Aug-11 05:00N 33°46' W 118°13'0 0.0
2018-Aug-11 04:30N 33°46' W 118°13'  

Dump ship's entire track history